Time;durP1;ratioP1;P1;durP2;ratioP2;P2;SDS_P1;SDS_P2;PMS_P1;PMS_P2;Temp;Humidity;BMP_temperature;BMP_pressure;BME280_temperature;BME280_humidity;BME280_pressure;Samples;Min_cycle;Max_cycle;Signal;HPM_P1;HPM_P2
2022/11/28 00:01:37;;;;;;;8.32;7.07;;;6.20;99.90;;;;;;5115354;27;20092;-67
2022/11/28 00:04:04;;;;;;;10.35;7.00;;;6.20;99.90;;;;;;5113041;27;20076;-66
2022/11/28 00:06:30;;;;;;;10.30;6.95;;;6.20;99.90;;;;;;5114270;27;20053;-66
2022/11/28 00:09:00;;;;;;;9.95;7.20;;;6.20;99.90;;;;;;5090380;27;20043;-65
2022/11/28 00:11:26;;;;;;;9.38;7.20;;;6.20;99.90;;;;;;5115068;27;20068;-67
2022/11/28 00:13:52;;;;;;;10.40;6.97;;;6.20;99.90;;;;;;5114183;27;20092;-66
2022/11/28 00:16:20;;;;;;;8.68;7.07;;;6.20;99.90;;;;;;5115063;27;20078;-67
2022/11/28 00:18:46;;;;;;;10.30;7.53;;;6.20;99.90;;;;;;5110390;27;20087;-66
2022/11/28 00:21:13;;;;;;;10.30;7.15;;;6.20;99.90;;;;;;5111909;27;20038;-68
2022/11/28 00:23:41;;;;;;;8.48;7.05;;;6.20;99.90;;;;;;5112664;27;20079;-66
2022/11/28 00:26:12;;;;;;;9.75;7.18;;;6.20;99.90;;;;;;5112461;28;20042;-68
2022/11/28 00:28:39;;;;;;;10.73;6.97;;;6.20;99.90;;;;;;5111695;27;20035;-67
2022/11/28 00:31:05;;;;;;;8.80;7.13;;;6.20;99.90;;;;;;5114588;27;20447;-66
2022/11/28 00:33:31;;;;;;;9.90;7.00;;;6.20;99.90;;;;;;5113603;27;20031;-66
2022/11/28 00:36:02;;;;;;;11.07;7.45;;;6.30;99.90;;;;;;5114522;27;20070;-66
2022/11/28 00:38:28;;;;;;;9.55;7.45;;;6.20;99.90;;;;;;5113973;27;20034;-66
2022/11/28 00:41:06;;;;;;;10.32;8.50;;;6.30;99.90;;;;;;5114375;27;20397;-66
2022/11/28 00:43:32;;;;;;;12.02;7.32;;;6.30;99.90;;;;;;5112099;27;20130;-66
2022/11/28 00:45:58;;;;;;;12.00;7.18;;;6.30;99.90;;;;;;5114073;27;20460;-66
2022/11/28 00:48:24;;;;;;;9.70;7.22;;;6.30;99.90;;;;;;5114538;27;20035;-66
2022/11/28 00:50:51;;;;;;;9.07;6.88;;;6.30;99.90;;;;;;5112509;27;20494;-67
2022/11/28 00:53:16;;;;;;;13.20;7.18;;;6.30;99.90;;;;;;5113381;27;20117;-66
2022/11/28 00:55:42;;;;;;;11.80;7.70;;;6.30;99.90;;;;;;5112335;27;20540;-66
2022/11/28 00:58:08;;;;;;;9.07;7.55;;;6.30;99.90;;;;;;5113304;27;20075;-65
2022/11/28 01:00:34;;;;;;;9.18;6.72;;;6.30;99.90;;;;;;5112052;27;20405;-66
2022/11/28 01:02:59;;;;;;;10.68;7.50;;;6.30;99.90;;;;;;5113927;27;20035;-66
2022/11/28 01:05:25;;;;;;;9.75;7.45;;;6.30;99.90;;;;;;5109315;27;20168;-67
2022/11/28 01:07:51;;;;;;;10.10;7.55;;;6.30;99.90;;;;;;5113889;27;20039;-68
2022/11/28 01:10:17;;;;;;;9.60;7.35;;;6.30;99.90;;;;;;5109045;27;20043;-66
2022/11/28 01:12:43;;;;;;;12.50;8.23;;;6.30;99.90;;;;;;5110646;27;20039;-67
2022/11/28 01:15:12;;;;;;;10.50;7.22;;;6.40;99.90;;;;;;5113056;27;20035;-66
2022/11/28 01:17:37;;;;;;;11.02;7.60;;;6.40;99.90;;;;;;5110228;27;20047;-65
2022/11/28 01:20:06;;;;;;;13.57;7.40;;;6.40;99.90;;;;;;5112641;27;20397;-65
2022/11/28 01:22:31;;;;;;;9.77;7.40;;;6.40;99.90;;;;;;5111181;27;20608;-66
2022/11/28 01:24:57;;;;;;;11.68;7.72;;;6.40;99.90;;;;;;5095786;27;20043;-66
2022/11/28 01:27:23;;;;;;;11.70;7.40;;;6.40;99.90;;;;;;5109425;27;20039;-66
2022/11/28 01:29:49;;;;;;;9.70;7.35;;;6.40;99.90;;;;;;5111762;27;20031;-65
2022/11/28 01:32:15;;;;;;;9.80;7.07;;;6.40;99.90;;;;;;5096166;27;20039;-67
2022/11/28 01:34:41;;;;;;;12.20;7.10;;;6.40;99.90;;;;;;5095448;27;20100;-67
2022/11/28 01:37:07;;;;;;;11.05;8.30;;;6.40;99.90;;;;;;5111079;27;20401;-66
2022/11/28 01:39:32;;;;;;;10.82;7.82;;;6.40;99.90;;;;;;5130851;27;20101;-66
2022/11/28 01:41:58;;;;;;;11.80;8.18;;;6.40;99.90;;;;;;5113042;27;20072;-66
2022/11/28 01:44:23;;;;;;;10.95;8.18;;;6.40;99.90;;;;;;5111203;27;20035;-66
2022/11/28 01:46:49;;;;;;;10.20;7.68;;;6.40;99.90;;;;;;5096532;27;20107;-67
2022/11/28 01:49:41;;;;;;;14.05;7.38;;;6.40;99.90;;;;;;5112280;27;20043;-66
2022/11/28 01:52:11;;;;;;;11.52;7.93;;;6.40;99.90;;;;;;5112388;27;20058;-67
2022/11/28 01:54:39;;;;;;;8.68;7.05;;;6.40;99.90;;;;;;5111268;27;20043;-66
2022/11/28 01:57:08;;;;;;;11.73;7.43;;;6.40;99.90;;;;;;5112551;27;20076;-65
2022/11/28 01:59:43;;;;;;;12.60;8.13;;;6.40;99.90;;;;;;5112312;27;20550;-67
2022/11/28 02:02:18;;;;;;;11.70;8.15;;;6.40;99.90;;;;;;5112828;27;20031;-67
2022/11/28 02:04:45;;;;;;;11.55;7.28;;;6.50;99.90;;;;;;5112098;27;20049;-66
2022/11/28 02:07:12;;;;;;;10.48;7.82;;;6.50;99.90;;;;;;5111818;27;20047;-67
2022/11/28 02:09:38;;;;;;;10.82;7.78;;;6.50;99.90;;;;;;5111366;27;20165;-66
2022/11/28 02:12:06;;;;;;;9.98;7.28;;;6.50;99.90;;;;;;5113216;27;20118;-66
2022/11/28 02:15:05;;;;;;;10.80;6.93;;;6.50;99.90;;;;;;5093844;27;20503;-66
2022/11/28 02:17:36;;;;;;;9.25;7.50;;;6.60;99.90;;;;;;5112490;27;20042;-67
2022/11/28 02:20:30;;;;;;;12.70;8.75;;;6.60;99.90;;;;;;5112808;27;20031;-67
2022/11/28 02:23:14;;;;;;;13.60;8.20;;;6.60;99.90;;;;;;5110534;27;20039;-67
2022/11/28 02:26:24;;;;;;;12.77;7.60;;;6.60;99.90;;;;;;5110915;27;20078;-67
2022/11/28 02:29:12;;;;;;;13.57;8.63;;;6.60;99.90;;;;;;5111834;28;20071;-68
2022/11/28 02:31:56;;;;;;;11.05;8.05;;;6.70;99.90;;;;;;5095101;28;20054;-66
2022/11/28 02:34:37;;;;;;;14.80;8.43;;;6.70;99.90;;;;;;5111927;28;20114;-67
2022/11/28 02:37:11;;;;;;;13.73;8.38;;;6.70;99.90;;;;;;5111763;28;20123;-65
2022/11/28 02:39:43;;;;;;;12.77;8.48;;;6.70;99.90;;;;;;5112814;28;20046;-66
2022/11/28 02:42:21;;;;;;;13.20;8.32;;;6.70;99.90;;;;;;5111506;28;20046;-67
2022/11/28 02:44:55;;;;;;;11.02;8.45;;;6.70;99.90;;;;;;5112648;28;20055;-65
2022/11/28 02:47:32;;;;;;;13.07;8.88;;;6.70;99.90;;;;;;5111346;28;20039;-67
2022/11/28 02:50:25;;;;;;;15.52;8.77;;;6.70;99.90;;;;;;5110765;27;20122;-66
2022/11/28 02:52:55;;;;;;;13.70;8.13;;;6.70;99.90;;;;;;5033797;28;20040;-66
2022/11/28 02:55:21;;;;;;;12.63;9.10;;;6.70;99.90;;;;;;5051039;28;20049;-67
2022/11/28 02:57:50;;;;;;;12.27;9.40;;;6.70;99.90;;;;;;5033641;28;20403;-66
2022/11/28 03:00:28;;;;;;;15.07;9.63;;;6.70;99.90;;;;;;5032030;28;20040;-67
2022/11/28 03:03:22;;;;;;;15.20;9.32;;;6.70;99.90;;;;;;5050939;28;20037;-65
2022/11/28 03:06:23;;;;;;;13.98;9.88;;;6.80;99.90;;;;;;4974929;28;20046;-66
2022/11/28 03:09:26;;;;;;;13.77;10.40;;;6.80;99.90;;;;;;4974176;28;20529;-67
2022/11/28 03:12:06;;;;;;;16.50;11.48;;;6.80;99.90;;;;;;4975491;28;20061;-67
2022/11/28 03:14:53;;;;;;;13.40;10.90;;;6.90;99.90;;;;;;4974738;28;20495;-66
2022/11/28 03:17:27;;;;;;;14.75;10.95;;;6.80;99.90;;;;;;4974404;28;20803;-68
2022/11/28 03:20:04;;;;;;;16.67;11.82;;;6.90;99.90;;;;;;4975165;28;20042;-64
2022/11/28 03:23:00;;;;;;;17.45;11.07;;;6.90;99.90;;;;;;4974441;28;20054;-66
2022/11/28 03:25:31;;;;;;;21.13;11.35;;;6.90;99.90;;;;;;4975237;28;20041;-67
2022/11/28 03:28:15;;;;;;;17.83;11.70;;;6.90;99.90;;;;;;4972639;28;20115;-65
2022/11/28 03:31:08;;;;;;;19.92;11.13;;;7.00;99.90;;;;;;5041455;28;20076;-66
2022/11/28 03:33:42;;;;;;;18.23;11.05;;;7.00;99.90;;;;;;5068879;28;20048;-66
2022/11/28 03:36:14;;;;;;;15.25;10.77;;;6.90;99.90;;;;;;5031677;28;20064;-66
2022/11/28 03:38:45;;;;;;;16.60;11.25;;;7.00;99.90;;;;;;5049541;28;20117;-66
2022/11/28 03:41:18;;;;;;;18.15;11.57;;;7.00;99.90;;;;;;5036904;28;20041;-67
2022/11/28 03:43:51;;;;;;;17.50;11.80;;;7.00;99.90;;;;;;5108473;27;20054;-67
2022/11/28 03:46:21;;;;;;;21.42;11.35;;;7.00;99.90;;;;;;5115131;27;20047;-67
2022/11/28 03:48:51;;;;;;;20.20;12.00;;;7.00;99.90;;;;;;5098212;27;20095;-66
2022/11/28 03:51:18;;;;;;;17.90;12.13;;;7.00;99.90;;;;;;5116076;27;20478;-66
2022/11/28 03:53:53;;;;;;;15.70;11.77;;;7.00;99.90;;;;;;5097689;27;20027;-66
2022/11/28 03:56:22;;;;;;;15.25;12.25;;;7.00;99.90;;;;;;5114517;27;20038;-67
2022/11/28 03:58:54;;;;;;;15.82;11.85;;;7.00;99.90;;;;;;5112982;27;20042;-66
2022/11/28 04:02:01;;;;;;;17.25;12.02;;;7.00;99.90;;;;;;5112131;27;20041;-68
2022/11/28 04:04:49;;;;;;;15.52;11.75;;;7.00;99.90;;;;;;5098482;27;20070;-66
2022/11/28 04:07:17;;;;;;;19.45;12.18;;;7.10;99.90;;;;;;5114237;27;20062;-67
2022/11/28 04:10:12;;;;;;;18.33;12.32;;;7.10;99.90;;;;;;5107578;28;20055;-66
2022/11/28 04:12:53;;;;;;;17.77;11.85;;;7.10;99.90;;;;;;5089764;28;20126;-67
2022/11/28 04:15:25;;;;;;;14.63;11.82;;;7.10;99.90;;;;;;5111237;28;20051;-68
2022/11/28 04:18:49;;;;;;;15.63;12.13;;;7.10;99.90;;;;;;5111072;28;20027;-67
2022/11/28 04:21:32;;;;;;;18.98;12.52;;;7.10;99.90;;;;;;5047692;28;20076;-67
2022/11/28 04:24:03;;;;;;;15.35;11.85;;;7.10;99.90;;;;;;5050989;28;20036;-66
2022/11/28 04:26:34;;;;;;;14.55;11.45;;;7.10;99.90;;;;;;5049613;28;20087;-66
2022/11/28 04:29:05;;;;;;;15.18;11.20;;;7.20;99.90;;;;;;5051322;28;20118;-65
2022/11/28 04:31:32;;;;;;;13.02;11.10;;;7.10;99.90;;;;;;5050151;28;20033;-67
2022/11/28 04:34:03;;;;;;;16.40;12.15;;;7.20;99.90;;;;;;5052454;28;20488;-67
2022/11/28 04:36:31;;;;;;;14.13;10.98;;;7.20;99.90;;;;;;5053156;28;20511;-66
2022/11/28 04:38:58;;;;;;;13.43;10.52;;;7.20;99.90;;;;;;5052427;28;20083;-67
2022/11/28 04:41:37;;;;;;;15.20;12.07;;;7.20;99.90;;;;;;5066096;28;20135;-67
2022/11/28 04:44:18;;;;;;;12.77;11.10;;;7.20;99.90;;;;;;5052913;28;20067;-66
2022/11/28 04:46:50;;;;;;;13.48;11.18;;;7.20;99.90;;;;;;5048962;28;20052;-66
2022/11/28 04:49:15;;;;;;;14.98;11.25;;;7.20;99.90;;;;;;5036217;28;20504;-66
2022/11/28 04:52:16;;;;;;;17.05;11.82;;;7.30;99.90;;;;;;5049376;28;20153;-66
2022/11/28 04:55:02;;;;;;;14.73;11.68;;;7.30;99.90;;;;;;5059342;28;20200;-66
2022/11/28 04:57:40;;;;;;;13.57;11.70;;;7.30;99.90;;;;;;5109649;28;20075;-67
2022/11/28 05:00:12;;;;;;;16.23;12.38;;;7.30;99.90;;;;;;5110355;28;20565;-66
2022/11/28 05:02:40;;;;;;;15.27;11.55;;;7.30;99.90;;;;;;5090532;28;20050;-65
2022/11/28 05:05:17;;;;;;;14.15;11.55;;;7.30;99.90;;;;;;5110679;28;20055;-66
2022/11/28 05:07:43;;;;;;;14.05;12.55;;;7.30;99.90;;;;;;5109828;28;20048;-66
2022/11/28 05:10:11;;;;;;;14.75;12.15;;;7.30;99.90;;;;;;5110233;28;20058;-68
2022/11/28 05:12:36;;;;;;;14.57;12.40;;;7.30;99.90;;;;;;5105312;27;20490;-66
2022/11/28 05:15:03;;;;;;;13.45;11.15;;;7.30;99.90;;;;;;5110382;28;20032;-67
2022/11/28 05:17:28;;;;;;;13.52;10.52;;;7.30;99.90;;;;;;5109421;28;20039;-66
2022/11/28 05:19:54;;;;;;;14.65;10.30;;;7.30;99.90;;;;;;5110230;28;20389;-67
2022/11/28 05:22:19;;;;;;;12.32;10.52;;;7.40;99.90;;;;;;5105461;28;20115;-67
2022/11/28 05:24:45;;;;;;;13.48;9.80;;;7.30;99.90;;;;;;5106361;28;20039;-67
2022/11/28 05:27:11;;;;;;;12.77;9.88;;;7.40;99.90;;;;;;5107952;28;20076;-66
2022/11/28 05:29:36;;;;;;;14.48;10.40;;;7.40;99.90;;;;;;5105929;28;20070;-67
2022/11/28 05:32:03;;;;;;;12.30;9.40;;;7.40;99.90;;;;;;5103641;28;20040;-66
2022/11/28 05:34:29;;;;;;;16.48;10.10;;;7.40;99.90;;;;;;5106425;28;20456;-68
2022/11/28 05:36:56;;;;;;;12.32;9.60;;;7.40;99.90;;;;;;5110149;28;20043;-66
2022/11/28 05:39:22;;;;;;;14.55;10.20;;;7.40;99.90;;;;;;5105339;28;20406;-67
2022/11/28 05:41:48;;;;;;;11.93;9.13;;;7.50;99.90;;;;;;5110017;28;20035;-67
2022/11/28 05:44:13;;;;;;;13.10;9.68;;;7.40;99.90;;;;;;5107967;28;20050;-67
2022/11/28 05:46:39;;;;;;;11.02;8.93;;;7.50;99.90;;;;;;5092769;28;20047;-67
2022/11/28 05:49:04;;;;;;;15.25;10.90;;;7.40;99.90;;;;;;5106863;28;20494;-67
2022/11/28 05:51:30;;;;;;;11.95;9.43;;;7.50;99.90;;;;;;5109830;28;20035;-66
2022/11/28 05:53:55;;;;;;;11.75;9.52;;;7.50;99.90;;;;;;5108065;28;20074;-66
2022/11/28 05:56:24;;;;;;;14.77;10.02;;;7.50;99.90;;;;;;5092765;28;20051;-67
2022/11/28 05:58:51;;;;;;;11.35;10.00;;;7.50;99.90;;;;;;5105823;28;20043;-66
2022/11/28 06:01:20;;;;;;;12.85;10.13;;;7.50;99.90;;;;;;5109400;28;20031;-66
2022/11/28 06:03:46;;;;;;;14.63;10.45;;;7.50;99.90;;;;;;5106532;27;20525;-66
2022/11/28 06:06:17;;;;;;;11.00;9.73;;;7.50;99.90;;;;;;5109629;28;20043;-66
2022/11/28 06:08:44;;;;;;;14.97;10.93;;;7.50;99.90;;;;;;5105828;28;20176;-66
2022/11/28 06:11:11;;;;;;;13.27;10.60;;;7.50;99.90;;;;;;5106184;28;20496;-67
2022/11/28 06:13:37;;;;;;;15.05;10.82;;;7.60;99.90;;;;;;5108907;28;20036;-66
2022/11/28 06:16:10;;;;;;;13.82;10.60;;;7.60;99.90;;;;;;5109953;28;20398;-68
2022/11/28 06:18:36;;;;;;;11.63;10.13;;;7.60;99.90;;;;;;5109230;28;20043;-67
2022/11/28 06:21:03;;;;;;;12.52;11.23;;;7.50;99.90;;;;;;5097267;28;20451;-67
2022/11/28 06:23:30;;;;;;;11.88;10.40;;;7.50;99.90;;;;;;5104653;28;20398;-67
2022/11/28 06:25:56;;;;;;;13.18;11.23;;;7.60;99.90;;;;;;5108591;28;20036;-66
2022/11/28 06:28:22;;;;;;;17.02;11.18;;;7.60;99.90;;;;;;5108727;28;20122;-67
2022/11/28 06:30:47;;;;;;;12.48;10.70;;;7.60;99.90;;;;;;5109082;28;20398;-68
2022/11/28 06:33:13;;;;;;;13.38;10.77;;;7.60;99.90;;;;;;5107425;28;20032;-67
2022/11/28 06:35:39;;;;;;;12.30;10.00;;;7.60;99.90;;;;;;5109151;28;20051;-68
2022/11/28 06:38:05;;;;;;;13.35;10.55;;;7.60;99.90;;;;;;5109224;28;20035;-68
2022/11/28 06:40:31;;;;;;;11.65;10.10;;;7.60;99.90;;;;;;5108739;28;20036;-67
2022/11/28 06:42:56;;;;;;;15.80;12.90;;;7.60;99.90;;;;;;5108272;28;20047;-68
2022/11/28 06:45:22;;;;;;;12.07;10.75;;;7.60;99.90;;;;;;5109166;28;20451;-67
2022/11/28 06:47:48;;;;;;;14.05;10.52;;;7.60;99.90;;;;;;5108966;28;20040;-67
2022/11/28 06:50:13;;;;;;;14.25;11.05;;;7.60;99.90;;;;;;5091842;28;20043;-68
2022/11/28 06:52:39;;;;;;;12.02;9.82;;;7.60;99.90;;;;;;5103675;28;20492;-67
2022/11/28 06:55:05;;;;;;;13.27;11.13;;;7.60;99.90;;;;;;5090755;28;20039;-67
2022/11/28 06:57:31;;;;;;;11.77;9.85;;;7.60;99.90;;;;;;5090577;28;20066;-67
2022/11/28 06:59:57;;;;;;;12.60;9.63;;;7.60;99.90;;;;;;5091568;28;20107;-66
2022/11/28 07:02:23;;;;;;;11.15;9.93;;;7.60;99.90;;;;;;5107591;28;20043;-67
2022/11/28 07:04:50;;;;;;;14.20;9.65;;;7.60;99.90;;;;;;5091613;28;20507;-67
2022/11/28 07:07:15;;;;;;;10.80;9.25;;;7.60;99.90;;;;;;5108968;28;20044;-68
2022/11/28 07:09:41;;;;;;;12.60;9.38;;;7.60;99.90;;;;;;5108819;28;20059;-67
2022/11/28 07:12:07;;;;;;;10.88;8.98;;;7.60;99.90;;;;;;5108371;28;20054;-66
2022/11/28 07:14:32;;;;;;;10.38;9.25;;;7.60;99.90;;;;;;5109073;28;20169;-67
2022/11/28 07:16:58;;;;;;;10.75;9.18;;;7.70;99.90;;;;;;5106019;28;20050;-66
2022/11/28 07:19:24;;;;;;;10.40;8.70;;;7.70;99.90;;;;;;5108772;28;20070;-67
2022/11/28 07:21:49;;;;;;;10.93;8.25;;;7.60;99.90;;;;;;5109043;28;20532;-67
2022/11/28 07:24:17;;;;;;;10.38;8.50;;;7.70;99.90;;;;;;5091068;28;20044;-67
2022/11/28 07:26:43;;;;;;;9.95;8.45;;;7.70;99.90;;;;;;5108659;28;20043;-65
2022/11/28 07:29:13;;;;;;;11.15;8.00;;;7.70;99.90;;;;;;5108990;28;20039;-68
2022/11/28 07:31:39;;;;;;;8.77;7.88;;;7.70;99.90;;;;;;5110137;28;20402;-66
2022/11/28 07:34:05;;;;;;;9.32;8.27;;;7.70;99.90;;;;;;5108584;28;20042;-67
2022/11/28 07:36:30;;;;;;;9.43;8.05;;;7.70;99.90;;;;;;5110490;28;20046;-66
2022/11/28 07:38:58;;;;;;;9.10;8.18;;;7.70;99.90;;;;;;5094904;28;20101;-67
2022/11/28 07:41:25;;;;;;;9.27;7.82;;;7.70;99.90;;;;;;5112414;28;20040;-67
2022/11/28 07:43:54;;;;;;;9.10;7.38;;;7.70;99.90;;;;;;5112421;28;20054;-67
2022/11/28 07:46:19;;;;;;;7.72;6.75;;;7.70;99.90;;;;;;5090918;28;20043;-67
2022/11/28 07:48:46;;;;;;;8.65;7.75;;;7.70;99.90;;;;;;5110797;27;20492;-67
2022/11/28 07:51:18;;;;;;;8.98;7.32;;;7.70;99.90;;;;;;5106968;27;20096;-67
2022/11/28 07:53:44;;;;;;;8.80;7.10;;;7.70;99.90;;;;;;5111180;28;20053;-67
2022/11/28 07:56:14;;;;;;;7.65;6.95;;;7.70;99.90;;;;;;5108369;27;20071;-65
2022/11/28 07:58:41;;;;;;;7.03;6.32;;;7.70;99.90;;;;;;5111662;28;20122;-67
2022/11/28 08:01:14;;;;;;;7.72;6.60;;;7.70;99.90;;;;;;5113970;27;20092;-67
2022/11/28 08:03:41;;;;;;;7.28;6.57;;;7.70;99.90;;;;;;5111316;28;20104;-66
2022/11/28 08:06:07;;;;;;;7.10;6.40;;;7.70;99.90;;;;;;5112183;28;20043;-67
2022/11/28 08:08:33;;;;;;;7.15;6.45;;;7.70;99.90;;;;;;5111426;28;20126;-67
2022/11/28 08:11:01;;;;;;;8.82;6.72;;;7.80;99.90;;;;;;5092663;28;20043;-67
2022/11/28 08:13:28;;;;;;;7.70;6.88;;;7.80;99.90;;;;;;5074716;28;20059;-67
2022/11/28 08:15:54;;;;;;;7.35;6.55;;;7.80;99.90;;;;;;5074669;28;20039;-67
2022/11/28 08:18:20;;;;;;;7.30;6.60;;;7.80;99.90;;;;;;5091689;28;20058;-66
2022/11/28 08:20:45;;;;;;;7.60;6.68;;;7.80;99.90;;;;;;5091278;28;20483;-67
2022/11/28 08:23:11;;;;;;;6.70;6.03;;;7.80;99.90;;;;;;5094323;28;20044;-66
2022/11/28 08:25:36;;;;;;;7.55;6.60;;;7.80;99.90;;;;;;5090985;28;20056;-67
2022/11/28 08:28:02;;;;;;;6.70;6.10;;;7.80;99.90;;;;;;5093692;28;20371;-67
2022/11/28 08:30:28;;;;;;;7.20;6.50;;;7.80;99.90;;;;;;5098467;28;20036;-67
2022/11/28 08:32:53;;;;;;;7.45;6.38;;;7.80;99.90;;;;;;5095590;28;20024;-66
2022/11/28 08:35:19;;;;;;;6.45;5.82;;;7.80;99.90;;;;;;5091358;28;20028;-67
2022/11/28 08:37:45;;;;;;;6.88;6.28;;;7.80;99.90;;;;;;5108272;28;20443;-67
2022/11/28 08:40:11;;;;;;;6.70;6.00;;;7.80;99.90;;;;;;5103390;28;20068;-68
2022/11/28 08:42:37;;;;;;;7.88;7.07;;;7.90;99.90;;;;;;5103342;28;20387;-68
2022/11/28 08:45:03;;;;;;;8.50;7.28;;;7.90;99.90;;;;;;5086064;28;20047;-68
2022/11/28 08:47:29;;;;;;;7.90;7.10;;;7.90;99.90;;;;;;5111005;28;20394;-66
2022/11/28 08:49:54;;;;;;;7.63;6.82;;;7.90;99.90;;;;;;5095337;28;20040;-66
2022/11/28 08:52:21;;;;;;;7.50;6.70;;;7.90;99.90;;;;;;5100215;28;20079;-67
2022/11/28 08:54:46;;;;;;;8.90;7.10;;;7.90;99.90;;;;;;5079818;28;20051;-67
2022/11/28 08:57:12;;;;;;;7.25;6.55;;;7.90;99.90;;;;;;5098419;28;20036;-67
2022/11/28 08:59:38;;;;;;;8.35;6.85;;;7.90;99.90;;;;;;5099468;28;20039;-65
2022/11/28 09:02:03;;;;;;;8.18;7.38;;;7.90;99.90;;;;;;5090567;28;20040;-67
2022/11/28 09:04:29;;;;;;;7.63;6.78;;;7.90;99.90;;;;;;5103206;28;20032;-67
2022/11/28 09:06:54;;;;;;;7.30;6.60;;;7.90;99.90;;;;;;5095352;28;20139;-67
2022/11/28 09:09:20;;;;;;;8.75;7.53;;;7.90;99.90;;;;;;5109697;28;20120;-67
2022/11/28 09:11:46;;;;;;;7.80;7.00;;;7.90;99.90;;;;;;5106187;28;20039;-67
2022/11/28 09:14:12;;;;;;;7.53;6.72;;;7.90;99.90;;;;;;5091715;28;20051;-67
2022/11/28 09:16:38;;;;;;;7.72;6.88;;;8.00;99.90;;;;;;5106943;28;20483;-67
2022/11/28 09:19:05;;;;;;;8.50;7.20;;;8.00;99.90;;;;;;5098949;28;20047;-67
2022/11/28 09:21:31;;;;;;;7.38;6.68;;;8.00;99.90;;;;;;5089419;28;20456;-66
2022/11/28 09:23:57;;;;;;;8.95;8.00;;;8.00;99.90;;;;;;5074015;28;20052;-66
2022/11/28 09:26:24;;;;;;;8.15;7.35;;;8.00;99.90;;;;;;5099101;28;20040;-66
2022/11/28 09:28:50;;;;;;;9.23;8.00;;;8.00;99.90;;;;;;5084209;28;20142;-66
2022/11/28 09:31:17;;;;;;;8.40;7.50;;;8.00;99.90;;;;;;5083128;28;20055;-68
2022/11/28 09:33:44;;;;;;;8.02;7.22;;;8.00;99.90;;;;;;5096285;28;20042;-66
2022/11/28 09:36:16;;;;;;;7.85;7.05;;;8.00;99.90;;;;;;5080963;28;20035;-66
2022/11/28 09:38:42;;;;;;;7.45;6.50;;;8.00;99.90;;;;;;5093378;28;20456;-66
2022/11/28 09:41:42;;;;;;;7.88;6.95;;;8.10;99.90;;;;;;5098159;28;20040;-67
2022/11/28 09:44:20;;;;;;;7.75;6.95;;;8.00;99.90;;;;;;5090225;28;20036;-67
2022/11/28 09:46:47;;;;;;;7.38;6.63;;;8.10;99.90;;;;;;5083096;28;20036;-66
2022/11/28 09:49:30;;;;;;;7.72;6.80;;;8.10;99.90;;;;;;5110120;28;20040;-68
2022/11/28 09:52:21;;;;;;;8.98;7.20;;;8.10;99.90;;;;;;5088810;28;20044;-67
2022/11/28 09:55:09;;;;;;;7.47;6.70;;;8.10;99.90;;;;;;5044232;28;20076;-65
2022/11/28 09:57:47;;;;;;;7.35;6.65;;;8.10;99.90;;;;;;5042603;28;20056;-67
2022/11/28 10:00:21;;;;;;;7.10;6.40;;;8.10;99.90;;;;;;5046747;28;20052;-66
2022/11/28 10:03:24;;;;;;;7.68;6.32;;;8.10;99.90;;;;;;5046257;28;20044;-66
2022/11/28 10:06:02;;;;;;;7.25;6.55;;;8.20;99.90;;;;;;5011404;28;20103;-67
2022/11/28 10:08:44;;;;;;;6.97;6.20;;;8.20;99.90;;;;;;5022565;28;20064;-66
2022/11/28 10:11:25;;;;;;;6.85;6.20;;;8.30;99.90;;;;;;5012006;28;20488;-67
2022/11/28 10:14:38;;;;;;;7.03;5.85;;;8.30;99.90;;;;;;5011647;28;20041;-66
2022/11/28 10:17:23;;;;;;;6.90;6.22;;;8.30;99.90;;;;;;5011879;28;20150;-67
2022/11/28 10:19:59;;;;;;;6.72;6.13;;;8.30;99.90;;;;;;5023975;28;20124;-67
2022/11/28 10:22:46;;;;;;;7.07;6.07;;;8.30;99.90;;;;;;5031188;28;20118;-67
2022/11/28 10:25:20;;;;;;;6.72;6.13;;;8.30;99.90;;;;;;5020751;28;20053;-65
2022/11/28 10:27:47;;;;;;;6.80;6.07;;;8.40;99.90;;;;;;5014921;28;20053;-66
2022/11/28 10:30:29;;;;;;;6.55;5.95;;;8.40;99.90;;;;;;5024798;28;20491;-66
2022/11/28 10:33:24;;;;;;;5.90;5.30;;;8.40;99.90;;;;;;5059971;28;20598;-67
2022/11/28 10:35:52;;;;;;;5.82;5.32;;;8.40;99.90;;;;;;5009756;28;20115;-67
2022/11/28 10:38:24;;;;;;;5.75;5.25;;;8.40;99.90;;;;;;5026701;28;20096;-67
2022/11/28 10:41:04;;;;;;;5.97;5.38;;;8.50;99.90;;;;;;5012882;28;20192;-66
2022/11/28 10:43:46;;;;;;;6.03;5.43;;;8.50;99.90;;;;;;5037686;28;20145;-65
2022/11/28 10:46:28;;;;;;;6.88;5.93;;;8.50;99.90;;;;;;5037378;28;20106;-66
2022/11/28 10:49:13;;;;;;;5.70;5.20;;;8.50;99.90;;;;;;5007437;28;20049;-65
2022/11/28 10:52:10;;;;;;;6.63;5.65;;;8.60;99.90;;;;;;5020203;28;20447;-65
2022/11/28 10:54:47;;;;;;;6.30;5.55;;;8.60;99.90;;;;;;5047359;28;20120;-65
2022/11/28 10:57:44;;;;;;;5.90;5.30;;;8.60;99.90;;;;;;5024074;28;20139;-66
2022/11/28 11:00:17;;;;;;;6.55;5.53;;;8.60;99.90;;;;;;5013024;28;20064;-65
2022/11/28 11:02:56;;;;;;;5.90;5.00;;;8.60;99.90;;;;;;5010889;28;20053;-65
2022/11/28 11:05:31;;;;;;;6.40;5.15;;;8.70;99.90;;;;;;5010759;28;20045;-64
2022/11/28 11:08:02;;;;;;;5.70;5.20;;;8.70;99.90;;;;;;5019520;28;20083;-67
2022/11/28 11:10:47;;;;;;;5.78;5.28;;;8.70;99.90;;;;;;5013740;28;20408;-66
2022/11/28 11:13:22;;;;;;;6.20;5.60;;;8.70;99.90;;;;;;5079049;28;20044;-67
2022/11/28 11:15:58;;;;;;;6.85;5.65;;;8.70;99.90;;;;;;5113013;28;20501;-67
2022/11/28 11:18:50;;;;;;;6.10;5.50;;;8.60;99.90;;;;;;5113125;28;20034;-67
2022/11/28 11:21:24;;;;;;;6.38;5.15;;;8.60;99.90;;;;;;5100849;28;20039;-66
2022/11/28 11:24:11;;;;;;;6.25;5.65;;;8.50;99.90;;;;;;5100860;28;20068;-67
2022/11/28 11:26:40;;;;;;;6.20;5.18;;;8.50;99.90;;;;;;5109281;28;20027;-67
2022/11/28 11:29:18;;;;;;;6.28;5.63;;;8.50;99.90;;;;;;5088928;28;20063;-67
2022/11/28 11:31:50;;;;;;;5.30;4.80;;;8.60;99.90;;;;;;5092884;28;20566;-68
2022/11/28 11:34:17;;;;;;;5.57;5.07;;;8.60;99.90;;;;;;5104310;28;20041;-67
2022/11/28 11:36:43;;;;;;;6.38;5.32;;;8.60;99.90;;;;;;5100267;28;20058;-67
2022/11/28 11:39:11;;;;;;;5.75;5.15;;;8.60;99.90;;;;;;5106510;28;20483;-68
2022/11/28 11:41:45;;;;;;;6.07;5.32;;;8.60;99.90;;;;;;5105369;28;20063;-67
2022/11/28 11:44:14;;;;;;;6.05;5.15;;;8.50;99.90;;;;;;5090545;28;20051;-67
2022/11/28 11:46:57;;;;;;;5.90;5.40;;;8.60;99.90;;;;;;5090235;28;20047;-67
2022/11/28 11:49:37;;;;;;;7.40;5.50;;;8.60;99.90;;;;;;5095050;28;20074;-67
2022/11/28 11:52:11;;;;;;;5.95;5.35;;;8.60;99.90;;;;;;5096204;28;20433;-67
2022/11/28 11:54:37;;;;;;;5.82;5.30;;;8.50;99.90;;;;;;5103183;28;20047;-67
2022/11/28 11:57:04;;;;;;;5.97;5.38;;;8.60;99.90;;;;;;5097453;28;20040;-67
2022/11/28 11:59:41;;;;;;;5.40;4.90;;;8.60;99.90;;;;;;5106560;28;20132;-67
2022/11/28 12:02:35;;;;;;;6.05;5.40;;;8.60;99.90;;;;;;5092651;28;20034;-67
2022/11/28 12:05:09;;;;;;;6.28;5.68;;;8.70;99.90;;;;;;5094278;28;20089;-67
2022/11/28 12:07:52;;;;;;;5.95;5.35;;;8.70;99.90;;;;;;5086998;28;20101;-67
2022/11/28 12:10:22;;;;;;;7.82;6.43;;;8.70;99.90;;;;;;5092088;28;20047;-67
2022/11/28 12:12:48;;;;;;;6.45;5.60;;;8.70;99.90;;;;;;5103765;28;20080;-68
2022/11/28 12:15:41;;;;;;;7.00;5.80;;;8.70;99.90;;;;;;5091642;28;20470;-67
2022/11/28 12:18:13;;;;;;;6.88;5.65;;;8.70;99.90;;;;;;5074000;28;20036;-66
2022/11/28 12:21:08;;;;;;;6.95;5.85;;;8.70;99.90;;;;;;5091339;28;20051;-67
2022/11/28 12:23:51;;;;;;;7.80;6.95;;;8.70;99.90;;;;;;5086936;28;20052;-67
2022/11/28 12:26:29;;;;;;;8.65;7.82;;;8.70;99.90;;;;;;5096036;27;20043;-67
2022/11/28 12:29:27;;;;;;;7.63;6.35;;;8.70;99.90;;;;;;5090137;28;20056;-69
2022/11/28 12:32:01;;;;;;;7.50;6.80;;;8.70;99.90;;;;;;5081305;28;20044;-67
2022/11/28 12:34:36;;;;;;;7.80;6.97;;;8.70;99.90;;;;;;5110922;28;20031;-67
2022/11/28 12:37:28;;;;;;;8.05;7.25;;;8.70;99.90;;;;;;5093927;28;20048;-67
2022/11/28 12:40:05;;;;;;;8.63;7.55;;;8.70;99.90;;;;;;5087645;28;20082;-67
2022/11/28 12:42:54;;;;;;;7.43;6.72;;;8.70;99.90;;;;;;5089650;28;20102;-68
2022/11/28 12:45:41;;;;;;;8.27;7.40;;;8.70;99.90;;;;;;5081306;28;20050;-67
2022/11/28 12:48:26;;;;;;;7.82;7.03;;;8.70;99.90;;;;;;5100181;28;20131;-66
2022/11/28 12:51:15;;;;;;;8.30;6.93;;;8.80;99.90;;;;;;5094516;28;20499;-67
2022/11/28 12:54:05;;;;;;;8.65;7.53;;;8.80;99.90;;;;;;5108631;28;20040;-67
2022/11/28 12:56:38;;;;;;;7.85;7.05;;;8.80;99.90;;;;;;5109887;28;20035;-67
2022/11/28 12:59:26;;;;;;;;;;;8.80;99.90;;;;;;5091559;28;20032;-67
2022/11/28 13:02:30;;;;;;;9.60;8.27;;;8.80;99.90;;;;;;5095209;28;20040;-68
2022/11/28 13:05:05;;;;;;;9.25;8.00;;;8.80;99.90;;;;;;5094434;28;20101;-67
2022/11/28 13:07:46;;;;;;;10.32;7.90;;;8.80;99.90;;;;;;5116079;27;20035;-67
2022/11/28 13:10:22;;;;;;;8.35;7.55;;;8.90;99.90;;;;;;5108917;28;20172;-67
2022/11/28 13:13:02;;;;;;;8.52;7.72;;;8.90;99.90;;;;;;5111486;28;20035;-68
2022/11/28 13:15:47;;;;;;;8.15;7.10;;;8.90;99.90;;;;;;5105065;27;20046;-67
2022/11/28 13:18:24;;;;;;;7.40;6.63;;;8.90;99.90;;;;;;5106597;28;20115;-67
2022/11/28 13:21:19;;;;;;;10.82;7.80;;;8.90;99.90;;;;;;5109153;28;20055;-67